createdAt,value
2023-03-20T00:01:35.464Z,3.60
2023-03-20T00:06:38.003Z,3.50
2023-03-20T00:11:48.787Z,3.30
2023-03-20T00:16:52.046Z,3.20
2023-03-20T00:21:55.471Z,3.40
2023-03-20T00:26:57.983Z,3.50
2023-03-20T00:32:00.670Z,3.50
2023-03-20T00:37:03.652Z,3.70
2023-03-20T00:42:07.747Z,3.90
2023-03-20T00:47:16.860Z,3.80
2023-03-20T00:52:20.715Z,3.70
2023-03-20T00:57:29.024Z,3.80
2023-03-20T01:02:32.084Z,3.70
2023-03-20T01:07:35.545Z,3.50
2023-03-20T01:12:43.435Z,3.40
2023-03-20T01:17:46.902Z,3.20
2023-03-20T01:22:49.412Z,3.50
2023-03-20T01:27:54.384Z,3.50
2023-03-20T01:33:01.811Z,3.40
2023-03-20T01:38:12.646Z,3.20
2023-03-20T01:43:18.672Z,3.10
2023-03-20T01:48:48.077Z,3.20
2023-03-20T01:53:56.669Z,3.50
2023-03-20T01:59:24.428Z,3.50
2023-03-20T02:04:33.896Z,3.70
2023-03-20T02:09:44.124Z,3.70
2023-03-20T02:14:53.291Z,4.10
2023-03-20T02:20:41.612Z,4.10
2023-03-20T02:26:16.374Z,4.40
2023-03-20T02:31:39.114Z,4.40
2023-03-20T02:37:06.007Z,4.50
2023-03-20T02:42:22.005Z,4.50
2023-03-20T02:47:31.796Z,4.60
2023-03-20T02:53:08.652Z,4.70
2023-03-20T02:58:30.980Z,4.70
2023-03-20T03:03:56.535Z,5.00
2023-03-20T03:09:09.671Z,5.20
2023-03-20T03:14:29.477Z,5.40
2023-03-20T03:19:33.757Z,5.30
2023-03-20T03:24:41.685Z,5.20
2023-03-20T03:29:57.853Z,5.20
2023-03-20T03:35:02.447Z,5.30
2023-03-20T03:40:17.689Z,5.40
2023-03-20T03:45:34.027Z,5.50
2023-03-20T03:50:48.989Z,5.70
2023-03-20T03:55:57.900Z,5.90
2023-03-20T04:01:03.343Z,6.00
2023-03-20T04:06:08.882Z,6.20
2023-03-20T04:11:20.591Z,6.30
2023-03-20T04:16:25.876Z,6.40
2023-03-20T04:21:29.379Z,6.60
2023-03-20T04:26:32.159Z,6.40
2023-03-20T04:31:35.055Z,6.20
2023-03-20T04:36:47.898Z,6.10
2023-03-20T04:41:52.480Z,6.30
2023-03-20T04:46:55.404Z,6.40
2023-03-20T04:51:58.234Z,6.20
2023-03-20T04:57:12.376Z,6.20
2023-03-20T05:02:17.899Z,6.20
2023-03-20T05:07:20.746Z,6.10
2023-03-20T05:12:35.542Z,6.10
2023-03-20T05:17:58.295Z,6.30
2023-03-20T05:23:27.065Z,6.20
2023-03-20T05:28:56.276Z,6.20
2023-03-20T05:34:17.460Z,6.20
2023-03-20T05:39:33.767Z,6.20
2023-03-20T05:44:44.242Z,6.30
2023-03-20T05:50:19.225Z,6.70
2023-03-20T05:55:28.560Z,7.20
2023-03-20T06:00:39.687Z,7.10
2023-03-20T06:06:00.861Z,6.90
2023-03-20T06:11:04.677Z,6.90
2023-03-20T06:16:11.998Z,6.80
2023-03-20T06:21:15.452Z,6.70
2023-03-20T06:26:18.216Z,6.80
2023-03-20T06:31:40.380Z,6.90
2023-03-20T06:36:48.637Z,7.00
2023-03-20T06:41:56.607Z,7.00
2023-03-20T06:47:01.335Z,7.10
2023-03-20T06:52:04.378Z,7.10
2023-03-20T06:57:08.879Z,7.20
2023-03-20T07:02:11.911Z,7.40
2023-03-20T07:07:15.087Z,7.50
2023-03-20T07:12:20.112Z,7.60
2023-03-20T07:17:23.665Z,7.70
2023-03-20T07:22:28.982Z,7.90
2023-03-20T07:27:50.869Z,8.00
2023-03-20T07:32:57.180Z,8.10
2023-03-20T07:38:04.673Z,8.20
2023-03-20T07:43:08.643Z,8.60
2023-03-20T07:48:31.573Z,8.80
2023-03-20T07:53:34.518Z,8.80
2023-03-20T07:58:37.396Z,8.60
2023-03-20T08:03:40.199Z,8.60
2023-03-20T08:08:42.859Z,8.70
2023-03-20T08:13:46.887Z,8.80
2023-03-20T08:18:50.865Z,8.80
2023-03-20T08:23:53.513Z,9.00
2023-03-20T08:28:56.185Z,9.30
2023-03-20T08:33:58.789Z,9.50
2023-03-20T08:39:01.378Z,9.80
2023-03-20T08:44:03.988Z,10.10
2023-03-20T08:49:07.297Z,10.40
2023-03-20T08:54:10.019Z,10.70
2023-03-20T08:59:12.967Z,11.00
2023-03-20T09:04:15.788Z,11.10
2023-03-20T09:09:20.241Z,11.40
2023-03-20T09:14:23.979Z,11.70
2023-03-20T09:19:27.481Z,11.90
2023-03-20T09:24:31.485Z,12.10
2023-03-20T09:29:34.080Z,12.40
2023-03-20T09:34:36.651Z,12.80
2023-03-20T09:39:39.147Z,13.20
2023-03-20T09:45:05.834Z,13.40
2023-03-20T09:50:26.277Z,13.80
2023-03-20T09:55:36.021Z,13.90
2023-03-20T10:00:43.013Z,14.10
2023-03-20T10:06:02.878Z,14.30
2023-03-20T10:11:50.519Z,14.40
2023-03-20T10:17:21.237Z,14.40
2023-03-20T10:22:47.415Z,14.10
2023-03-20T10:27:57.790Z,14.00
2023-03-20T10:33:12.325Z,14.30
2023-03-20T10:38:14.904Z,14.50
2023-03-20T10:43:21.472Z,14.70
2023-03-20T10:49:08.984Z,14.80
2023-03-20T10:54:32.946Z,14.80
2023-03-20T10:59:51.000Z,14.90
2023-03-20T11:04:53.540Z,15.00
2023-03-20T11:10:04.875Z,15.10
2023-03-20T11:15:34.554Z,15.20
2023-03-20T11:20:52.394Z,15.10
2023-03-20T11:25:58.002Z,15.20
2023-03-20T11:31:05.585Z,15.30
2023-03-20T11:36:21.857Z,15.50
2023-03-20T11:41:28.097Z,15.70
2023-03-20T11:46:30.695Z,15.80
2023-03-20T11:51:35.630Z,15.90
2023-03-20T11:56:38.447Z,16.00
2023-03-20T12:01:55.920Z,16.00
2023-03-20T12:07:12.812Z,16.10
2023-03-20T12:12:24.314Z,16.00
2023-03-20T12:17:57.553Z,16.10
2023-03-20T12:23:06.665Z,16.00
2023-03-20T12:28:29.442Z,15.70
2023-03-20T12:33:41.536Z,15.30
2023-03-20T12:38:45.947Z,15.50
2023-03-20T12:44:10.286Z,15.60
2023-03-20T12:49:12.800Z,15.60
2023-03-20T12:54:58.536Z,15.50
2023-03-20T13:00:18.587Z,15.50
2023-03-20T13:05:45.494Z,14.90
2023-03-20T13:10:58.645Z,14.70
2023-03-20T13:16:24.269Z,15.00
2023-03-20T13:21:37.438Z,15.20
2023-03-20T13:26:49.129Z,15.40
2023-03-20T13:32:21.062Z,15.40
2023-03-20T13:37:37.464Z,15.40
2023-03-20T13:42:52.520Z,15.50
2023-03-20T13:47:55.494Z,15.50
2023-03-20T13:53:27.100Z,15.50
2023-03-20T13:58:46.108Z,15.60
2023-03-20T14:03:49.824Z,15.80
2023-03-20T14:08:55.749Z,16.10
2023-03-20T14:14:12.785Z,16.30
2023-03-20T14:19:20.919Z,16.30
2023-03-20T14:24:25.080Z,16.40
2023-03-20T14:29:30.644Z,16.40
2023-03-20T14:34:48.038Z,16.40
2023-03-20T14:39:54.157Z,16.40
2023-03-20T14:45:16.670Z,16.60
2023-03-20T14:50:24.649Z,16.60
2023-03-20T14:55:28.167Z,16.70
2023-03-20T15:00:44.578Z,16.30
2023-03-20T15:05:47.859Z,14.90
2023-03-20T15:10:54.260Z,14.30
2023-03-20T15:15:58.513Z,14.20
2023-03-20T15:21:01.091Z,15.00
2023-03-20T15:26:03.643Z,15.20
2023-03-20T15:31:07.209Z,15.00
2023-03-20T15:36:27.101Z,14.80
2023-03-20T15:41:34.014Z,14.50
2023-03-20T15:46:36.647Z,14.40
2023-03-20T15:51:39.205Z,14.50
2023-03-20T15:56:45.883Z,14.70
2023-03-20T16:01:52.408Z,14.60
2023-03-20T16:07:00.595Z,14.70
2023-03-20T16:12:03.695Z,14.90
2023-03-20T16:17:06.386Z,15.10
2023-03-20T16:22:30.663Z,14.90
2023-03-20T16:27:34.937Z,14.60
2023-03-20T16:32:41.587Z,14.50
2023-03-20T16:37:52.527Z,14.50
2023-03-20T16:42:57.198Z,14.40
2023-03-20T16:48:11.931Z,14.60
2023-03-20T16:53:23.544Z,14.60
2023-03-20T16:58:30.953Z,14.30
2023-03-20T17:03:44.806Z,14.20
2023-03-20T17:08:50.659Z,14.00
2023-03-20T17:13:53.373Z,14.10
2023-03-20T17:19:01.462Z,14.20
2023-03-20T17:24:04.214Z,14.10
2023-03-20T17:29:07.370Z,14.00
2023-03-20T17:34:14.723Z,14.00
2023-03-20T17:39:19.655Z,13.90
2023-03-20T17:44:22.943Z,13.90
2023-03-20T17:49:27.654Z,14.00
2023-03-20T17:54:30.532Z,13.90
2023-03-20T17:59:32.995Z,14.00
2023-03-20T18:04:36.058Z,13.70
2023-03-20T18:09:40.128Z,13.80
2023-03-20T18:14:43.232Z,13.70
2023-03-20T18:19:45.931Z,13.50
2023-03-20T18:24:48.548Z,13.50
2023-03-20T18:29:51.561Z,13.60
2023-03-20T18:34:55.179Z,13.70
2023-03-20T18:40:00.950Z,13.70
2023-03-20T18:45:03.737Z,13.60
2023-03-20T18:50:13.298Z,13.50
2023-03-20T18:55:16.406Z,13.30
2023-03-20T19:00:21.532Z,13.50
2023-03-20T19:05:26.351Z,13.90
2023-03-20T19:10:38.134Z,14.10
2023-03-20T19:15:41.635Z,14.60
2023-03-20T19:20:51.952Z,14.40
2023-03-20T19:25:55.313Z,14.40
2023-03-20T19:30:57.826Z,14.30
2023-03-20T19:36:05.934Z,14.30
2023-03-20T19:41:08.971Z,14.40
2023-03-20T19:46:20.409Z,14.40
2023-03-20T19:51:31.992Z,14.40
2023-03-20T19:56:34.679Z,14.20
2023-03-20T20:01:37.394Z,14.10
2023-03-20T20:06:41.625Z,14.00
2023-03-20T20:11:44.562Z,14.00
2023-03-20T20:16:48.912Z,13.80
2023-03-20T20:22:19.700Z,13.80
2023-03-20T20:27:18.384Z,13.70
2023-03-20T20:32:23.957Z,14.10
2023-03-20T20:42:51.992Z,14.50
2023-03-20T20:47:56.133Z,13.70
2023-03-20T20:52:59.280Z,13.10
2023-03-20T20:58:03.754Z,12.40
2023-03-20T21:03:06.647Z,12.30
2023-03-20T21:08:09.577Z,12.10
2023-03-20T21:13:12.200Z,10.70
2023-03-20T21:18:14.952Z,11.00
2023-03-20T21:23:17.707Z,11.70
2023-03-20T21:28:20.257Z,12.20
2023-03-20T21:33:23.131Z,12.60
2023-03-20T21:43:49.850Z,13.10
2023-03-20T21:49:47.689Z,13.30
2023-03-20T22:00:19.171Z,13.60
2023-03-20T22:05:37.362Z,13.50
2023-03-20T22:11:20.199Z,13.40
2023-03-20T22:16:36.693Z,13.40
2023-03-20T22:32:47.760Z,13.10
2023-03-20T22:38:17.459Z,13.00
2023-03-20T22:43:01.542Z,12.80
2023-03-20T22:48:04.925Z,12.70
2023-03-20T22:53:07.691Z,12.90
2023-03-20T22:58:14.835Z,13.10
2023-03-20T23:03:33.317Z,12.90
2023-03-20T23:08:48.112Z,12.90
2023-03-20T23:13:55.046Z,13.10
2023-03-20T23:18:57.629Z,13.20
2023-03-20T23:24:00.236Z,13.40
2023-03-20T23:29:03.519Z,13.40
2023-03-20T23:34:06.267Z,13.30
2023-03-20T23:39:10.870Z,12.90
2023-03-20T23:44:13.408Z,12.80
2023-03-20T23:49:16.731Z,12.70
2023-03-20T23:54:19.450Z,12.70
2023-03-20T23:59:22.425Z,12.60
